sensor_id;sensor_type;location;lat;lon;timestamp;temperature;humidity
32097;DHT22;18610;49.916;8.284;2022-11-02T00:02:23;9.90;99.90
32097;DHT22;18610;49.916;8.284;2022-11-02T00:04:50;9.90;99.90
32097;DHT22;18610;49.916;8.284;2022-11-02T00:07:17;9.90;99.90
32097;DHT22;18610;49.916;8.284;2022-11-02T00:09:44;9.80;99.90
32097;DHT22;18610;49.916;8.284;2022-11-02T00:12:11;9.90;99.90
32097;DHT22;18610;49.916;8.284;2022-11-02T00:14:39;9.90;99.90
32097;DHT22;18610;49.916;8.284;2022-11-02T00:17:06;9.90;99.90
32097;DHT22;18610;49.916;8.284;2022-11-02T00:19:33;9.90;99.90
32097;DHT22;18610;49.916;8.284;2022-11-02T00:22:00;10.00;99.90
32097;DHT22;18610;49.916;8.284;2022-11-02T00:24:27;10.00;99.90
32097;DHT22;18610;49.916;8.284;2022-11-02T00:26:54;9.90;99.90
32097;DHT22;18610;49.916;8.284;2022-11-02T00:29:21;9.80;99.90
32097;DHT22;18610;49.916;8.284;2022-11-02T00:31:50;9.80;99.90
32097;DHT22;18610;49.916;8.284;2022-11-02T00:34:17;9.70;99.90
32097;DHT22;18610;49.916;8.284;2022-11-02T00:36:44;9.80;99.90
32097;DHT22;18610;49.916;8.284;2022-11-02T00:39:11;9.80;99.90
32097;DHT22;18610;49.916;8.284;2022-11-02T00:41:38;9.80;99.90
32097;DHT22;18610;49.916;8.284;2022-11-02T00:44:04;9.80;99.90
32097;DHT22;18610;49.916;8.284;2022-11-02T00:46:31;9.90;99.90
32097;DHT22;18610;49.916;8.284;2022-11-02T00:49:00;9.90;99.90
32097;DHT22;18610;49.916;8.284;2022-11-02T00:51:26;9.90;99.90
32097;DHT22;18610;49.916;8.284;2022-11-02T00:53:53;9.90;99.90
32097;DHT22;18610;49.916;8.284;2022-11-02T00:56:20;9.90;99.90
32097;DHT22;18610;49.916;8.284;2022-11-02T00:58:47;9.90;99.90
32097;DHT22;18610;49.916;8.284;2022-11-02T01:01:14;9.90;99.90
32097;DHT22;18610;49.916;8.284;2022-11-02T01:03:40;9.90;99.90
32097;DHT22;18610;49.916;8.284;2022-11-02T01:06:11;9.90;99.90
32097;DHT22;18610;49.916;8.284;2022-11-02T01:08:38;10.00;99.90
32097;DHT22;18610;49.916;8.284;2022-11-02T01:11:11;10.00;99.90
32097;DHT22;18610;49.916;8.284;2022-11-02T01:13:37;10.00;99.90
32097;DHT22;18610;49.916;8.284;2022-11-02T01:16:05;10.10;99.90
32097;DHT22;18610;49.916;8.284;2022-11-02T01:18:32;10.10;99.90
32097;DHT22;18610;49.916;8.284;2022-11-02T01:20:59;10.10;99.90
32097;DHT22;18610;49.916;8.284;2022-11-02T01:23:30;10.10;99.90
32097;DHT22;18610;49.916;8.284;2022-11-02T01:25:58;10.10;99.90
32097;DHT22;18610;49.916;8.284;2022-11-02T01:28:24;10.10;99.90
32097;DHT22;18610;49.916;8.284;2022-11-02T01:30:51;10.10;99.90
32097;DHT22;18610;49.916;8.284;2022-11-02T01:33:18;10.20;99.90
32097;DHT22;18610;49.916;8.284;2022-11-02T01:35:45;10.20;99.90
32097;DHT22;18610;49.916;8.284;2022-11-02T01:38:12;10.20;99.90
32097;DHT22;18610;49.916;8.284;2022-11-02T01:40:40;10.20;99.90
32097;DHT22;18610;49.916;8.284;2022-11-02T01:43:20;10.10;99.90
32097;DHT22;18610;49.916;8.284;2022-11-02T01:45:48;10.10;99.90
32097;DHT22;18610;49.916;8.284;2022-11-02T01:48:26;10.20;99.90
32097;DHT22;18610;49.916;8.284;2022-11-02T01:50:53;10.20;99.90
32097;DHT22;18610;49.916;8.284;2022-11-02T01:53:20;10.20;99.90
32097;DHT22;18610;49.916;8.284;2022-11-02T01:55:49;10.20;99.90
32097;DHT22;18610;49.916;8.284;2022-11-02T01:58:16;10.20;99.90
32097;DHT22;18610;49.916;8.284;2022-11-02T02:00:43;10.20;99.90
32097;DHT22;18610;49.916;8.284;2022-11-02T02:03:12;10.10;99.90
32097;DHT22;18610;49.916;8.284;2022-11-02T02:05:42;10.10;99.90
32097;DHT22;18610;49.916;8.284;2022-11-02T02:08:12;10.10;99.90
32097;DHT22;18610;49.916;8.284;2022-11-02T02:10:40;10.20;99.90
32097;DHT22;18610;49.916;8.284;2022-11-02T02:13:08;10.20;99.90
32097;DHT22;18610;49.916;8.284;2022-11-02T02:15:40;10.20;99.90
32097;DHT22;18610;49.916;8.284;2022-11-02T02:18:12;10.20;99.90
32097;DHT22;18610;49.916;8.284;2022-11-02T02:21:00;10.30;99.90
32097;DHT22;18610;49.916;8.284;2022-11-02T02:23:41;10.20;99.90
32097;DHT22;18610;49.916;8.284;2022-11-02T02:26:40;10.20;99.90
32097;DHT22;18610;49.916;8.284;2022-11-02T02:29:15;10.10;99.90
32097;DHT22;18610;49.916;8.284;2022-11-02T02:31:47;10.10;99.90
32097;DHT22;18610;49.916;8.284;2022-11-02T02:34:20;10.00;99.90
32097;DHT22;18610;49.916;8.284;2022-11-02T02:36:50;10.00;99.90
32097;DHT22;18610;49.916;8.284;2022-11-02T02:39:22;10.00;99.90
32097;DHT22;18610;49.916;8.284;2022-11-02T02:41:55;9.90;99.90
32097;DHT22;18610;49.916;8.284;2022-11-02T02:44:28;9.90;99.90
32097;DHT22;18610;49.916;8.284;2022-11-02T02:46:57;9.90;99.90
32097;DHT22;18610;49.916;8.284;2022-11-02T02:49:30;9.90;99.90
32097;DHT22;18610;49.916;8.284;2022-11-02T02:51:59;9.90;99.90
32097;DHT22;18610;49.916;8.284;2022-11-02T02:54:30;9.90;99.90
32097;DHT22;18610;49.916;8.284;2022-11-02T02:57:01;9.90;99.90
32097;DHT22;18610;49.916;8.284;2022-11-02T02:59:33;9.90;99.90
32097;DHT22;18610;49.916;8.284;2022-11-02T03:02:04;9.90;99.90
32097;DHT22;18610;49.916;8.284;2022-11-02T03:04:31;10.00;99.90
32097;DHT22;18610;49.916;8.284;2022-11-02T03:06:59;10.00;99.90
32097;DHT22;18610;49.916;8.284;2022-11-02T03:09:30;10.00;99.90
32097;DHT22;18610;49.916;8.284;2022-11-02T03:12:07;10.00;99.90
32097;DHT22;18610;49.916;8.284;2022-11-02T03:14:48;10.00;99.90
32097;DHT22;18610;49.916;8.284;2022-11-02T03:17:24;10.10;99.90
32097;DHT22;18610;49.916;8.284;2022-11-02T03:19:58;10.00;99.90
32097;DHT22;18610;49.916;8.284;2022-11-02T03:22:31;10.00;99.90
32097;DHT22;18610;49.916;8.284;2022-11-02T03:25:06;9.90;99.90
32097;DHT22;18610;49.916;8.284;2022-11-02T03:27:38;9.90;99.90
32097;DHT22;18610;49.916;8.284;2022-11-02T03:30:08;9.80;99.90
32097;DHT22;18610;49.916;8.284;2022-11-02T03:32:39;9.70;99.90
32097;DHT22;18610;49.916;8.284;2022-11-02T03:35:13;9.70;99.90
32097;DHT22;18610;49.916;8.284;2022-11-02T03:37:46;9.80;99.90
32097;DHT22;18610;49.916;8.284;2022-11-02T03:40:16;9.70;99.90
32097;DHT22;18610;49.916;8.284;2022-11-02T03:42:44;9.80;99.90
32097;DHT22;18610;49.916;8.284;2022-11-02T03:45:15;9.90;99.90
32097;DHT22;18610;49.916;8.284;2022-11-02T03:47:46;9.90;99.90
32097;DHT22;18610;49.916;8.284;2022-11-02T03:50:19;10.00;99.90
32097;DHT22;18610;49.916;8.284;2022-11-02T03:52:52;10.00;99.90
32097;DHT22;18610;49.916;8.284;2022-11-02T03:55:23;10.10;99.90
32097;DHT22;18610;49.916;8.284;2022-11-02T03:57:52;10.20;99.90
32097;DHT22;18610;49.916;8.284;2022-11-02T04:00:21;10.20;99.90
32097;DHT22;18610;49.916;8.284;2022-11-02T04:02:51;10.30;99.90
32097;DHT22;18610;49.916;8.284;2022-11-02T04:05:19;10.30;99.90
32097;DHT22;18610;49.916;8.284;2022-11-02T04:07:49;10.30;99.90
32097;DHT22;18610;49.916;8.284;2022-11-02T04:10:35;10.30;99.90
32097;DHT22;18610;49.916;8.284;2022-11-02T04:13:22;10.30;99.90
32097;DHT22;18610;49.916;8.284;2022-11-02T04:16:07;10.30;99.90
32097;DHT22;18610;49.916;8.284;2022-11-02T04:18:34;10.30;99.90
32097;DHT22;18610;49.916;8.284;2022-11-02T04:21:18;10.30;99.90
32097;DHT22;18610;49.916;8.284;2022-11-02T04:23:45;10.30;99.90
32097;DHT22;18610;49.916;8.284;2022-11-02T04:26:30;10.30;99.90
32097;DHT22;18610;49.916;8.284;2022-11-02T04:28:56;10.30;99.90
32097;DHT22;18610;49.916;8.284;2022-11-02T04:31:24;10.30;99.90
32097;DHT22;18610;49.916;8.284;2022-11-02T04:33:51;10.30;99.90
32097;DHT22;18610;49.916;8.284;2022-11-02T04:36:17;10.30;99.90
32097;DHT22;18610;49.916;8.284;2022-11-02T04:38:44;10.20;99.90
32097;DHT22;18610;49.916;8.284;2022-11-02T04:41:11;10.20;99.90
32097;DHT22;18610;49.916;8.284;2022-11-02T04:43:56;10.30;99.90
32097;DHT22;18610;49.916;8.284;2022-11-02T04:46:26;10.30;99.90
32097;DHT22;18610;49.916;8.284;2022-11-02T04:48:53;10.20;99.90
32097;DHT22;18610;49.916;8.284;2022-11-02T04:51:21;10.20;99.90
32097;DHT22;18610;49.916;8.284;2022-11-02T04:53:49;10.20;99.90
32097;DHT22;18610;49.916;8.284;2022-11-02T04:56:17;10.10;99.90
32097;DHT22;18610;49.916;8.284;2022-11-02T04:58:47;10.00;99.90
32097;DHT22;18610;49.916;8.284;2022-11-02T05:01:15;10.00;99.90
32097;DHT22;18610;49.916;8.284;2022-11-02T05:03:45;10.00;99.90
32097;DHT22;18610;49.916;8.284;2022-11-02T05:06:13;10.00;99.90
32097;DHT22;18610;49.916;8.284;2022-11-02T05:08:40;10.00;99.90
32097;DHT22;18610;49.916;8.284;2022-11-02T05:11:08;10.00;99.90
32097;DHT22;18610;49.916;8.284;2022-11-02T05:13:35;10.00;99.90
32097;DHT22;18610;49.916;8.284;2022-11-02T05:16:03;10.00;99.90
32097;DHT22;18610;49.916;8.284;2022-11-02T05:18:30;10.00;99.90
32097;DHT22;18610;49.916;8.284;2022-11-02T05:20:59;10.00;99.90
32097;DHT22;18610;49.916;8.284;2022-11-02T05:23:27;10.00;99.90
32097;DHT22;18610;49.916;8.284;2022-11-02T05:25:54;10.00;99.90
32097;DHT22;18610;49.916;8.284;2022-11-02T05:28:21;10.00;99.90
32097;DHT22;18610;49.916;8.284;2022-11-02T05:30:49;10.00;99.90
32097;DHT22;18610;49.916;8.284;2022-11-02T05:33:15;10.00;99.90
32097;DHT22;18610;49.916;8.284;2022-11-02T05:35:42;10.00;99.90
32097;DHT22;18610;49.916;8.284;2022-11-02T05:38:10;10.00;99.90
32097;DHT22;18610;49.916;8.284;2022-11-02T05:40:38;10.00;99.90
32097;DHT22;18610;49.916;8.284;2022-11-02T05:43:06;10.00;99.90
32097;DHT22;18610;49.916;8.284;2022-11-02T05:45:33;10.00;99.90
32097;DHT22;18610;49.916;8.284;2022-11-02T05:48:01;10.00;99.90
32097;DHT22;18610;49.916;8.284;2022-11-02T05:50:28;10.00;99.90
32097;DHT22;18610;49.916;8.284;2022-11-02T05:52:55;10.00;99.90
32097;DHT22;18610;49.916;8.284;2022-11-02T05:55:23;10.00;99.90
32097;DHT22;18610;49.916;8.284;2022-11-02T05:57:51;10.00;99.90
32097;DHT22;18610;49.916;8.284;2022-11-02T06:00:19;9.90;99.90
32097;DHT22;18610;49.916;8.284;2022-11-02T06:02:46;9.90;99.90
32097;DHT22;18610;49.916;8.284;2022-11-02T06:05:13;9.80;99.90
32097;DHT22;18610;49.916;8.284;2022-11-02T06:07:40;9.80;99.90
32097;DHT22;18610;49.916;8.284;2022-11-02T06:10:07;9.80;99.90
32097;DHT22;18610;49.916;8.284;2022-11-02T06:12:35;9.70;99.90
32097;DHT22;18610;49.916;8.284;2022-11-02T06:15:02;9.70;99.90
32097;DHT22;18610;49.916;8.284;2022-11-02T06:17:35;9.70;99.90
32097;DHT22;18610;49.916;8.284;2022-11-02T06:20:03;9.70;99.90
32097;DHT22;18610;49.916;8.284;2022-11-02T06:22:29;9.60;99.90
32097;DHT22;18610;49.916;8.284;2022-11-02T06:24:57;9.60;99.90
32097;DHT22;18610;49.916;8.284;2022-11-02T06:27:24;9.70;99.90
32097;DHT22;18610;49.916;8.284;2022-11-02T06:29:52;9.60;99.90
32097;DHT22;18610;49.916;8.284;2022-11-02T06:32:19;9.60;99.90
32097;DHT22;18610;49.916;8.284;2022-11-02T06:34:46;9.60;99.90
32097;DHT22;18610;49.916;8.284;2022-11-02T06:37:13;9.60;99.90
32097;DHT22;18610;49.916;8.284;2022-11-02T06:39:40;9.60;99.90
32097;DHT22;18610;49.916;8.284;2022-11-02T06:42:06;9.50;99.90
32097;DHT22;18610;49.916;8.284;2022-11-02T06:44:33;9.60;99.90
32097;DHT22;18610;49.916;8.284;2022-11-02T06:47:01;9.60;99.90
32097;DHT22;18610;49.916;8.284;2022-11-02T06:49:28;9.60;99.90
32097;DHT22;18610;49.916;8.284;2022-11-02T06:51:55;9.70;99.90
32097;DHT22;18610;49.916;8.284;2022-11-02T06:54:22;9.70;99.90
32097;DHT22;18610;49.916;8.284;2022-11-02T06:56:49;9.70;99.90
32097;DHT22;18610;49.916;8.284;2022-11-02T06:59:15;9.80;99.90
32097;DHT22;18610;49.916;8.284;2022-11-02T07:01:42;9.80;99.90
32097;DHT22;18610;49.916;8.284;2022-11-02T07:04:10;9.80;99.90
32097;DHT22;18610;49.916;8.284;2022-11-02T07:06:38;9.90;99.90
32097;DHT22;18610;49.916;8.284;2022-11-02T07:09:05;10.00;99.90
32097;DHT22;18610;49.916;8.284;2022-11-02T07:11:31;10.10;99.90
32097;DHT22;18610;49.916;8.284;2022-11-02T07:13:58;10.30;99.90
32097;DHT22;18610;49.916;8.284;2022-11-02T07:16:25;10.50;99.90
32097;DHT22;18610;49.916;8.284;2022-11-02T07:18:52;10.70;99.90
32097;DHT22;18610;49.916;8.284;2022-11-02T07:21:20;10.80;99.90
32097;DHT22;18610;49.916;8.284;2022-11-02T07:23:46;11.00;99.90
32097;DHT22;18610;49.916;8.284;2022-11-02T07:26:13;11.10;99.90
32097;DHT22;18610;49.916;8.284;2022-11-02T07:28:40;11.30;99.90
32097;DHT22;18610;49.916;8.284;2022-11-02T07:31:07;11.40;99.90
32097;DHT22;18610;49.916;8.284;2022-11-02T07:33:34;11.60;99.90
32097;DHT22;18610;49.916;8.284;2022-11-02T07:36:02;11.70;99.90
32097;DHT22;18610;49.916;8.284;2022-11-02T07:38:31;11.90;99.90
32097;DHT22;18610;49.916;8.284;2022-11-02T07:40:57;12.00;99.90
32097;DHT22;18610;49.916;8.284;2022-11-02T07:43:24;12.10;99.90
32097;DHT22;18610;49.916;8.284;2022-11-02T07:45:51;12.30;99.90
32097;DHT22;18610;49.916;8.284;2022-11-02T07:48:18;12.50;99.90
32097;DHT22;18610;49.916;8.284;2022-11-02T07:50:44;12.70;99.90
32097;DHT22;18610;49.916;8.284;2022-11-02T07:53:12;12.80;99.90
32097;DHT22;18610;49.916;8.284;2022-11-02T07:55:40;12.80;99.90
32097;DHT22;18610;49.916;8.284;2022-11-02T07:58:09;12.90;99.90
32097;DHT22;18610;49.916;8.284;2022-11-02T08:00:38;13.00;99.90
32097;DHT22;18610;49.916;8.284;2022-11-02T08:03:07;13.10;99.90
32097;DHT22;18610;49.916;8.284;2022-11-02T08:05:35;13.20;99.90
32097;DHT22;18610;49.916;8.284;2022-11-02T08:08:04;13.20;99.90
32097;DHT22;18610;49.916;8.284;2022-11-02T08:10:33;13.30;99.90
32097;DHT22;18610;49.916;8.284;2022-11-02T08:13:02;13.50;99.90
32097;DHT22;18610;49.916;8.284;2022-11-02T08:15:28;13.60;99.90
32097;DHT22;18610;49.916;8.284;2022-11-02T08:17:59;13.70;99.90
32097;DHT22;18610;49.916;8.284;2022-11-02T08:20:27;13.80;99.90
32097;DHT22;18610;49.916;8.284;2022-11-02T08:22:54;14.00;99.90
32097;DHT22;18610;49.916;8.284;2022-11-02T08:25:21;14.10;99.90
32097;DHT22;18610;49.916;8.284;2022-11-02T08:27:47;14.20;99.90
32097;DHT22;18610;49.916;8.284;2022-11-02T08:30:15;14.30;99.90
32097;DHT22;18610;49.916;8.284;2022-11-02T08:32:43;14.40;99.90
32097;DHT22;18610;49.916;8.284;2022-11-02T08:35:09;14.30;99.90
32097;DHT22;18610;49.916;8.284;2022-11-02T08:37:36;14.40;99.90
32097;DHT22;18610;49.916;8.284;2022-11-02T08:40:04;14.50;99.90
32097;DHT22;18610;49.916;8.284;2022-11-02T08:42:31;14.60;99.90
32097;DHT22;18610;49.916;8.284;2022-11-02T08:44:58;14.70;99.90
32097;DHT22;18610;49.916;8.284;2022-11-02T08:47:26;14.80;99.90
32097;DHT22;18610;49.916;8.284;2022-11-02T08:49:53;14.90;99.90
32097;DHT22;18610;49.916;8.284;2022-11-02T08:52:19;14.90;99.90
32097;DHT22;18610;49.916;8.284;2022-11-02T08:54:46;15.00;99.90
32097;DHT22;18610;49.916;8.284;2022-11-02T08:57:13;15.00;99.90
32097;DHT22;18610;49.916;8.284;2022-11-02T08:59:40;14.80;99.90
32097;DHT22;18610;49.916;8.284;2022-11-02T09:02:08;14.80;99.90
32097;DHT22;18610;49.916;8.284;2022-11-02T09:04:36;14.80;99.90
32097;DHT22;18610;49.916;8.284;2022-11-02T09:07:03;14.90;99.90
32097;DHT22;18610;49.916;8.284;2022-11-02T09:09:30;15.00;99.90
32097;DHT22;18610;49.916;8.284;2022-11-02T09:11:56;15.10;99.90
32097;DHT22;18610;49.916;8.284;2022-11-02T09:14:23;15.20;99.90
32097;DHT22;18610;49.916;8.284;2022-11-02T09:16:50;15.40;99.90
32097;DHT22;18610;49.916;8.284;2022-11-02T09:19:16;15.40;99.90
32097;DHT22;18610;49.916;8.284;2022-11-02T09:21:45;15.40;99.90
32097;DHT22;18610;49.916;8.284;2022-11-02T09:24:14;15.50;99.90
32097;DHT22;18610;49.916;8.284;2022-11-02T09:26:41;15.60;99.90
32097;DHT22;18610;49.916;8.284;2022-11-02T09:29:08;15.70;99.90
32097;DHT22;18610;49.916;8.284;2022-11-02T09:31:34;15.70;99.90
32097;DHT22;18610;49.916;8.284;2022-11-02T09:34:01;15.80;99.90
32097;DHT22;18610;49.916;8.284;2022-11-02T09:36:28;15.90;99.90
32097;DHT22;18610;49.916;8.284;2022-11-02T09:38:56;16.10;99.90
32097;DHT22;18610;49.916;8.284;2022-11-02T09:41:27;16.20;99.90
32097;DHT22;18610;49.916;8.284;2022-11-02T09:43:57;16.40;99.90
32097;DHT22;18610;49.916;8.284;2022-11-02T09:46:29;16.50;99.90
32097;DHT22;18610;49.916;8.284;2022-11-02T09:48:59;16.60;99.90
32097;DHT22;18610;49.916;8.284;2022-11-02T09:51:32;16.70;99.90
32097;DHT22;18610;49.916;8.284;2022-11-02T09:54:06;16.50;99.90
32097;DHT22;18610;49.916;8.284;2022-11-02T09:56:34;16.40;99.90
32097;DHT22;18610;49.916;8.284;2022-11-02T09:59:03;16.40;99.90
32097;DHT22;18610;49.916;8.284;2022-11-02T10:01:41;16.50;99.90
32097;DHT22;18610;49.916;8.284;2022-11-02T10:04:25;16.60;99.90
32097;DHT22;18610;49.916;8.284;2022-11-02T10:07:05;16.80;99.90
32097;DHT22;18610;49.916;8.284;2022-11-02T10:09:39;16.90;99.80
32097;DHT22;18610;49.916;8.284;2022-11-02T10:12:13;16.90;99.90
32097;DHT22;18610;49.916;8.284;2022-11-02T10:14:47;16.90;99.20
32097;DHT22;18610;49.916;8.284;2022-11-02T10:17:19;16.80;99.50
32097;DHT22;18610;49.916;8.284;2022-11-02T10:19:51;16.70;99.80
32097;DHT22;18610;49.916;8.284;2022-11-02T10:22:19;16.70;99.60
32097;DHT22;18610;49.916;8.284;2022-11-02T10:24:52;16.80;99.70
32097;DHT22;18610;49.916;8.284;2022-11-02T10:27:24;17.00;98.00
32097;DHT22;18610;49.916;8.284;2022-11-02T10:29:57;17.20;97.60
32097;DHT22;18610;49.916;8.284;2022-11-02T10:32:27;17.40;97.70
32097;DHT22;18610;49.916;8.284;2022-11-02T10:34:55;17.60;96.70
32097;DHT22;18610;49.916;8.284;2022-11-02T10:37:32;17.80;96.50
32097;DHT22;18610;49.916;8.284;2022-11-02T10:40:11;18.00;95.70
32097;DHT22;18610;49.916;8.284;2022-11-02T10:42:55;18.20;95.50
32097;DHT22;18610;49.916;8.284;2022-11-02T10:45:58;18.20;94.80
32097;DHT22;18610;49.916;8.284;2022-11-02T10:48:33;18.50;94.20
32097;DHT22;18610;49.916;8.284;2022-11-02T10:51:07;18.20;94.60
32097;DHT22;18610;49.916;8.284;2022-11-02T10:53:35;18.00;94.80
32097;DHT22;18610;49.916;8.284;2022-11-02T10:56:15;17.80;95.10
32097;DHT22;18610;49.916;8.284;2022-11-02T10:58:47;17.70;95.10
32097;DHT22;18610;49.916;8.284;2022-11-02T11:01:15;17.70;94.60
32097;DHT22;18610;49.916;8.284;2022-11-02T11:03:56;17.50;94.10
32097;DHT22;18610;49.916;8.284;2022-11-02T11:06:25;17.20;94.60
32097;DHT22;18610;49.916;8.284;2022-11-02T11:08:58;17.10;94.90
32097;DHT22;18610;49.916;8.284;2022-11-02T11:11:27;16.80;94.20
32097;DHT22;18610;49.916;8.284;2022-11-02T11:13:58;16.70;94.10
32097;DHT22;18610;49.916;8.284;2022-11-02T11:16:33;17.00;93.70
32097;DHT22;18610;49.916;8.284;2022-11-02T11:19:01;17.30;93.50
32097;DHT22;18610;49.916;8.284;2022-11-02T11:21:36;17.30;92.70
32097;DHT22;18610;49.916;8.284;2022-11-02T11:24:20;17.60;92.10
32097;DHT22;18610;49.916;8.284;2022-11-02T11:27:01;17.50;91.20
32097;DHT22;18610;49.916;8.284;2022-11-02T11:29:30;17.40;92.00
32097;DHT22;18610;49.916;8.284;2022-11-02T11:31:58;17.30;91.80
32097;DHT22;18610;49.916;8.284;2022-11-02T11:34:26;17.00;91.60
32097;DHT22;18610;49.916;8.284;2022-11-02T11:37:03;16.90;92.50
32097;DHT22;18610;49.916;8.284;2022-11-02T11:39:31;16.70;92.10
32097;DHT22;18610;49.916;8.284;2022-11-02T11:42:01;16.80;92.10
32097;DHT22;18610;49.916;8.284;2022-11-02T11:44:29;17.10;91.80
32097;DHT22;18610;49.916;8.284;2022-11-02T11:46:58;17.40;92.10
32097;DHT22;18610;49.916;8.284;2022-11-02T11:49:28;17.80;91.00
32097;DHT22;18610;49.916;8.284;2022-11-02T11:51:57;18.30;90.40
32097;DHT22;18610;49.916;8.284;2022-11-02T11:54:25;18.30;89.20
32097;DHT22;18610;49.916;8.284;2022-11-02T11:56:54;17.90;87.40
32097;DHT22;18610;49.916;8.284;2022-11-02T11:59:26;17.60;87.70
32097;DHT22;18610;49.916;8.284;2022-11-02T12:01:56;18.20;88.60
32097;DHT22;18610;49.916;8.284;2022-11-02T12:04:34;18.20;86.10
32097;DHT22;18610;49.916;8.284;2022-11-02T12:07:19;18.20;85.90
32097;DHT22;18610;49.916;8.284;2022-11-02T12:10:00;18.00;87.40
32097;DHT22;18610;49.916;8.284;2022-11-02T12:12:39;17.90;87.90
32097;DHT22;18610;49.916;8.284;2022-11-02T12:15:16;18.40;86.10
32097;DHT22;18610;49.916;8.284;2022-11-02T12:17:55;19.10;84.40
32097;DHT22;18610;49.916;8.284;2022-11-02T12:20:38;19.70;81.00
32097;DHT22;18610;49.916;8.284;2022-11-02T12:23:30;20.10;78.70
32097;DHT22;18610;49.916;8.284;2022-11-02T12:26:10;19.70;78.30
32097;DHT22;18610;49.916;8.284;2022-11-02T12:28:43;19.20;80.50
32097;DHT22;18610;49.916;8.284;2022-11-02T12:31:21;18.80;81.30
32097;DHT22;18610;49.916;8.284;2022-11-02T12:34:10;19.00;81.90
32097;DHT22;18610;49.916;8.284;2022-11-02T12:36:51;19.70;80.40
32097;DHT22;18610;49.916;8.284;2022-11-02T12:39:23;19.70;79.90
32097;DHT22;18610;49.916;8.284;2022-11-02T12:42:01;20.00;77.10
32097;DHT22;18610;49.916;8.284;2022-11-02T12:44:40;20.70;76.50
32097;DHT22;18610;49.916;8.284;2022-11-02T12:47:21;20.70;75.10
32097;DHT22;18610;49.916;8.284;2022-11-02T12:49:54;20.40;74.10
32097;DHT22;18610;49.916;8.284;2022-11-02T12:52:33;20.10;75.30
32097;DHT22;18610;49.916;8.284;2022-11-02T12:55:10;20.20;74.00
32097;DHT22;18610;49.916;8.284;2022-11-02T12:57:39;20.40;72.80
32097;DHT22;18610;49.916;8.284;2022-11-02T13:00:16;21.00;70.30
32097;DHT22;18610;49.916;8.284;2022-11-02T13:02:53;21.70;67.90
32097;DHT22;18610;49.916;8.284;2022-11-02T13:05:24;22.60;65.50
32097;DHT22;18610;49.916;8.284;2022-11-02T13:08:00;23.40;62.70
32097;DHT22;18610;49.916;8.284;2022-11-02T13:10:31;24.10;59.90
32097;DHT22;18610;49.916;8.284;2022-11-02T13:13:01;25.00;56.70
32097;DHT22;18610;49.916;8.284;2022-11-02T13:15:32;25.80;53.50
32097;DHT22;18610;49.916;8.284;2022-11-02T13:18:05;26.20;52.10
32097;DHT22;18610;49.916;8.284;2022-11-02T13:20:40;26.50;50.70
32097;DHT22;18610;49.916;8.284;2022-11-02T13:23:16;26.70;49.70
32097;DHT22;18610;49.916;8.284;2022-11-02T13:25:48;27.00;49.10
32097;DHT22;18610;49.916;8.284;2022-11-02T13:28:18;27.10;47.70
32097;DHT22;18610;49.916;8.284;2022-11-02T13:30:48;27.30;46.60
32097;DHT22;18610;49.916;8.284;2022-11-02T13:33:21;27.50;46.60
32097;DHT22;18610;49.916;8.284;2022-11-02T13:35:50;27.40;46.80
32097;DHT22;18610;49.916;8.284;2022-11-02T13:38:25;27.40;45.90
32097;DHT22;18610;49.916;8.284;2022-11-02T13:41:03;27.40;45.70
32097;DHT22;18610;49.916;8.284;2022-11-02T13:43:54;27.80;45.40
32097;DHT22;18610;49.916;8.284;2022-11-02T13:46:52;27.80;45.30
32097;DHT22;18610;49.916;8.284;2022-11-02T13:49:28;27.50;44.70
32097;DHT22;18610;49.916;8.284;2022-11-02T13:51:59;27.50;45.30
32097;DHT22;18610;49.916;8.284;2022-11-02T13:54:29;27.10;44.90
32097;DHT22;18610;49.916;8.284;2022-11-02T13:56:58;26.90;45.00
32097;DHT22;18610;49.916;8.284;2022-11-02T13:59:27;26.00;46.10
32097;DHT22;18610;49.916;8.284;2022-11-02T14:01:55;26.00;47.20
32097;DHT22;18610;49.916;8.284;2022-11-02T14:04:25;26.50;46.60
32097;DHT22;18610;49.916;8.284;2022-11-02T14:06:57;26.70;45.60
32097;DHT22;18610;49.916;8.284;2022-11-02T14:09:31;26.90;44.10
32097;DHT22;18610;49.916;8.284;2022-11-02T14:12:25;26.10;45.60
32097;DHT22;18610;49.916;8.284;2022-11-02T14:18:28;25.30;46.90
32097;DHT22;18610;49.916;8.284;2022-11-02T14:20:57;25.20;47.50
32097;DHT22;18610;49.916;8.284;2022-11-02T14:23:38;25.20;46.70
32097;DHT22;18610;49.916;8.284;2022-11-02T14:26:33;25.40;46.70
32097;DHT22;18610;49.916;8.284;2022-11-02T14:29:36;25.90;46.80
32097;DHT22;18610;49.916;8.284;2022-11-02T14:32:08;26.40;45.20
32097;DHT22;18610;49.916;8.284;2022-11-02T14:34:47;26.80;45.10
32097;DHT22;18610;49.916;8.284;2022-11-02T14:37:39;26.70;45.30
32097;DHT22;18610;49.916;8.284;2022-11-02T14:40:19;27.20;44.20
32097;DHT22;18610;49.916;8.284;2022-11-02T14:45:54;25.90;45.10
32097;DHT22;18610;49.916;8.284;2022-11-02T14:48:24;25.00;46.60
32097;DHT22;18610;49.916;8.284;2022-11-02T14:50:59;24.30;47.40
32097;DHT22;18610;49.916;8.284;2022-11-02T14:53:31;24.10;49.10
32097;DHT22;18610;49.916;8.284;2022-11-02T14:56:00;24.20;48.50
32097;DHT22;18610;49.916;8.284;2022-11-02T14:58:31;23.60;48.80
32097;DHT22;18610;49.916;8.284;2022-11-02T15:01:00;23.00;49.90
32097;DHT22;18610;49.916;8.284;2022-11-02T15:03:32;23.00;50.90
32097;DHT22;18610;49.916;8.284;2022-11-02T15:06:02;23.00;50.80
32097;DHT22;18610;49.916;8.284;2022-11-02T15:08:34;22.60;50.90
32097;DHT22;18610;49.916;8.284;2022-11-02T15:14:02;21.40;53.30
32097;DHT22;18610;49.916;8.284;2022-11-02T15:16:38;21.20;53.80
32097;DHT22;18610;49.916;8.284;2022-11-02T15:19:34;20.90;54.40
32097;DHT22;18610;49.916;8.284;2022-11-02T15:22:31;20.40;55.50
32097;DHT22;18610;49.916;8.284;2022-11-02T15:25:05;19.80;56.80
32097;DHT22;18610;49.916;8.284;2022-11-02T15:27:36;19.40;57.90
32097;DHT22;18610;49.916;8.284;2022-11-02T15:30:05;19.10;58.80
32097;DHT22;18610;49.916;8.284;2022-11-02T15:32:36;18.80;60.50
32097;DHT22;18610;49.916;8.284;2022-11-02T15:35:05;18.50;61.70
32097;DHT22;18610;49.916;8.284;2022-11-02T15:37:32;18.30;63.50
32097;DHT22;18610;49.916;8.284;2022-11-02T15:40:02;17.90;64.70
32097;DHT22;18610;49.916;8.284;2022-11-02T15:42:36;17.60;66.20
32097;DHT22;18610;49.916;8.284;2022-11-02T15:45:41;17.20;67.60
32097;DHT22;18610;49.916;8.284;2022-11-02T15:48:26;16.80;69.20
32097;DHT22;18610;49.916;8.284;2022-11-02T15:50:59;16.50;70.80
32097;DHT22;18610;49.916;8.284;2022-11-02T15:53:45;16.20;72.00
32097;DHT22;18610;49.916;8.284;2022-11-02T15:56:45;15.90;75.30
32097;DHT22;18610;49.916;8.284;2022-11-02T16:02:35;15.40;81.80
32097;DHT22;18610;49.916;8.284;2022-11-02T16:05:04;15.20;86.20
32097;DHT22;18610;49.916;8.284;2022-11-02T16:07:32;14.80;89.10
32097;DHT22;18610;49.916;8.284;2022-11-02T16:10:11;14.50;91.00
32097;DHT22;18610;49.916;8.284;2022-11-02T16:12:42;14.30;92.90